createdAt,value
2019-04-03T00:04:36.182Z,6.10
2019-04-03T00:07:07.205Z,7.90
2019-04-03T00:09:36.842Z,6.47
2019-04-03T00:12:06.124Z,7.42
2019-04-03T00:14:34.474Z,7.03
2019-04-03T00:17:07.654Z,8.88
2019-04-03T00:19:38.886Z,7.17
2019-04-03T00:22:10.084Z,8.05
2019-04-03T00:24:41.716Z,6.45
2019-04-03T00:27:13.686Z,6.08
2019-04-03T00:29:43.296Z,6.55
2019-04-03T00:32:14.124Z,7.03
2019-04-03T00:37:18.084Z,11.22
2019-04-03T00:39:48.600Z,6.90
2019-04-03T00:42:19.217Z,5.83
2019-04-03T00:47:19.634Z,5.40
2019-04-03T00:49:51.214Z,6.90
2019-04-03T00:52:22.194Z,7.20
2019-04-03T00:54:56.419Z,6.92
2019-04-03T00:57:27.614Z,6.03
2019-04-03T00:59:56.973Z,7.25
2019-04-03T01:04:59.230Z,7.03
2019-04-03T01:07:29.783Z,5.70
2019-04-03T01:09:59.574Z,6.20
2019-04-03T01:12:31.471Z,6.30
2019-04-03T01:15:01.551Z,6.42
2019-04-03T01:17:35.069Z,4.58
2019-04-03T01:20:02.897Z,6.62
2019-04-03T01:22:35.594Z,6.22
2019-04-03T01:25:03.744Z,7.15
2019-04-03T01:27:32.154Z,6.10
2019-04-03T01:30:01.685Z,5.15
2019-04-03T01:32:32.154Z,5.50
2019-04-03T01:35:02.616Z,7.05
2019-04-03T01:37:34.133Z,8.05
2019-04-03T01:40:02.664Z,6.95
2019-04-03T01:42:32.342Z,6.75
2019-04-03T01:45:03.760Z,4.62
2019-04-03T01:47:32.674Z,6.75
2019-04-03T01:50:01.403Z,5.65
2019-04-03T01:52:31.786Z,5.15
2019-04-03T01:55:04.399Z,7.28
2019-04-03T01:57:33.002Z,5.47
2019-04-03T02:00:02.820Z,5.20
2019-04-03T02:02:35.124Z,6.65
2019-04-03T02:05:04.195Z,6.80
2019-04-03T02:07:34.245Z,7.97
2019-04-03T02:10:06.096Z,5.07
2019-04-03T02:12:34.795Z,4.45
2019-04-03T02:15:04.239Z,7.42
2019-04-03T02:17:32.674Z,6.10
2019-04-03T02:20:02.171Z,5.67
2019-04-03T02:22:34.136Z,6.87
2019-04-03T02:25:06.216Z,5.22
2019-04-03T02:27:38.594Z,5.90
2019-04-03T02:30:07.505Z,5.80
2019-04-03T02:32:37.285Z,6.08
2019-04-03T02:35:09.470Z,6.28
2019-04-03T02:37:41.593Z,4.95
2019-04-03T02:40:15.527Z,6.92
2019-04-03T02:42:44.537Z,5.47
2019-04-03T02:45:18.171Z,5.28
2019-04-03T02:47:50.601Z,8.15
2019-04-03T02:50:25.700Z,4.17
2019-04-03T02:52:59.489Z,4.92
2019-04-03T02:55:31.386Z,5.90
2019-04-03T02:58:02.985Z,5.30
2019-04-03T03:00:33.533Z,4.90
2019-04-03T03:03:04.120Z,6.90
2019-04-03T03:05:36.598Z,5.70
2019-04-03T03:08:10.265Z,6.45
2019-04-03T03:10:41.424Z,5.90
2019-04-03T03:13:14.289Z,5.37
2019-04-03T03:15:44.331Z,5.53
2019-04-03T03:18:15.376Z,5.75
2019-04-03T03:23:16.369Z,5.97
2019-04-03T03:25:46.864Z,4.92
2019-04-03T03:28:17.484Z,5.40
2019-04-03T03:30:57.874Z,4.97
2019-04-03T03:33:30.918Z,5.37
2019-04-03T03:35:52.384Z,5.78
2019-04-03T03:38:27.553Z,5.55
2019-04-03T03:40:54.445Z,5.37
2019-04-03T03:43:23.751Z,5.67
2019-04-03T03:45:55.706Z,5.60
2019-04-03T03:48:26.456Z,4.97
2019-04-03T03:50:58.696Z,5.28
2019-04-03T03:53:30.242Z,6.62
2019-04-03T03:56:02.123Z,5.17
2019-04-03T04:01:08.311Z,4.72
2019-04-03T04:03:40.354Z,4.85
2019-04-03T04:06:10.284Z,5.40
2019-04-03T04:08:44.931Z,5.53
2019-04-03T04:11:15.534Z,5.97
2019-04-03T04:13:49.712Z,5.20
2019-04-03T04:16:22.328Z,6.78
2019-04-03T04:18:56.322Z,4.90
2019-04-03T04:21:26.955Z,5.12
2019-04-03T04:23:59.363Z,6.42
2019-04-03T04:26:32.535Z,6.15
2019-04-03T04:29:02.134Z,5.03
2019-04-03T04:31:34.024Z,5.53
2019-04-03T04:34:04.218Z,4.15
2019-04-03T04:36:34.135Z,5.40
2019-04-03T04:39:06.174Z,4.40
2019-04-03T04:41:37.977Z,5.60
2019-04-03T04:44:08.006Z,4.92
2019-04-03T04:46:39.215Z,4.35
2019-04-03T04:49:10.034Z,5.78
2019-04-03T04:54:08.562Z,5.60
2019-04-03T04:56:38.874Z,4.95
2019-04-03T04:59:11.734Z,4.40
2019-04-03T05:01:42.293Z,5.83
2019-04-03T05:04:10.682Z,4.83
2019-04-03T05:06:39.052Z,5.33
2019-04-03T05:09:08.235Z,4.47
2019-04-03T05:11:39.419Z,5.62
2019-04-03T05:14:08.939Z,5.55
2019-04-03T05:16:38.004Z,7.42
2019-04-03T05:19:10.802Z,6.55
2019-04-03T05:21:42.613Z,5.45
2019-04-03T05:24:13.630Z,10.10
2019-04-03T05:26:41.774Z,6.67
2019-04-03T05:29:17.483Z,5.25
2019-04-03T05:31:49.144Z,5.80
2019-04-03T05:34:21.344Z,6.40
2019-04-03T05:36:56.484Z,10.65
2019-04-03T05:39:31.195Z,7.55
2019-04-03T05:42:03.484Z,9.73
2019-04-03T05:44:35.664Z,5.95
2019-04-03T05:47:10.145Z,5.10
2019-04-03T05:49:45.948Z,8.15
2019-04-03T05:52:16.254Z,8.35
2019-04-03T05:54:48.288Z,6.55
2019-04-03T05:57:20.466Z,6.15
2019-04-03T06:00:00.051Z,7.30
2019-04-03T06:02:22.194Z,7.92
2019-04-03T06:04:51.278Z,7.12
2019-04-03T06:07:24.184Z,5.40
2019-04-03T06:09:57.805Z,5.53
2019-04-03T06:12:26.344Z,4.67
2019-04-03T06:14:57.691Z,7.28
2019-04-03T06:17:31.503Z,6.78
2019-04-03T06:20:03.607Z,5.72
2019-04-03T06:22:31.884Z,7.90
2019-04-03T06:25:02.349Z,5.70
2019-04-03T06:27:31.623Z,6.40
2019-04-03T06:30:02.314Z,5.12
2019-04-03T06:32:34.297Z,8.85
2019-04-03T06:35:04.736Z,6.22
2019-04-03T06:37:33.736Z,10.13
2019-04-03T06:40:03.701Z,4.45
2019-04-03T06:42:36.114Z,4.35
2019-04-03T06:45:08.483Z,5.37
2019-04-03T06:47:39.241Z,4.67
2019-04-03T06:52:40.014Z,4.65
2019-04-03T06:55:11.215Z,4.45
2019-04-03T06:57:41.545Z,5.42
2019-04-03T07:00:12.563Z,5.42
2019-04-03T07:05:12.097Z,5.35
2019-04-03T07:07:42.691Z,5.92
2019-04-03T07:10:24.052Z,4.97
2019-04-03T07:12:48.078Z,7.05
2019-04-03T07:15:17.394Z,5.10
2019-04-03T07:17:48.574Z,5.72
2019-04-03T07:20:19.727Z,4.62
2019-04-03T07:22:48.974Z,7.20
2019-04-03T07:25:19.575Z,6.47
2019-04-03T07:27:50.196Z,4.55
2019-04-03T07:30:21.632Z,4.90
2019-04-03T07:32:52.855Z,6.05
2019-04-03T07:35:22.886Z,5.45
2019-04-03T07:37:52.701Z,4.95
2019-04-03T07:40:24.325Z,5.00
2019-04-03T07:42:56.846Z,5.37
2019-04-03T07:45:29.653Z,5.25
2019-04-03T07:48:00.404Z,6.22
2019-04-03T07:50:31.194Z,5.20
2019-04-03T07:53:03.438Z,5.58
2019-04-03T07:55:35.102Z,8.68
2019-04-03T07:58:05.368Z,5.90
2019-04-03T08:00:36.129Z,6.60
2019-04-03T08:03:06.595Z,6.40
2019-04-03T08:05:37.034Z,8.98
2019-04-03T08:08:06.187Z,5.17
2019-04-03T08:10:38.320Z,7.92
2019-04-03T08:13:09.285Z,5.83
2019-04-03T08:18:10.717Z,7.05
2019-04-03T08:20:41.844Z,6.67
2019-04-03T08:25:47.188Z,8.58
2019-04-03T08:28:16.263Z,9.03
2019-04-03T08:30:47.233Z,5.90
2019-04-03T08:33:19.756Z,8.93
2019-04-03T08:35:48.660Z,8.80
2019-04-03T08:38:19.281Z,11.60
2019-04-03T08:40:51.454Z,11.93
2019-04-03T08:43:22.553Z,16.20
2019-04-03T08:45:51.753Z,8.93
2019-04-03T08:48:24.173Z,9.05
2019-04-03T08:50:58.606Z,10.10
2019-04-03T08:53:31.345Z,9.70
2019-04-03T08:56:02.754Z,9.53
2019-04-03T08:58:33.734Z,9.10
2019-04-03T09:01:04.855Z,7.25
2019-04-03T09:03:34.565Z,11.35
2019-04-03T09:08:34.268Z,10.53
2019-04-03T09:11:06.124Z,10.93
2019-04-03T09:13:38.853Z,8.35
2019-04-03T09:16:10.529Z,9.05
2019-04-03T09:18:42.101Z,7.47
2019-04-03T09:21:12.828Z,7.15
2019-04-03T09:23:45.476Z,9.13
2019-04-03T09:26:18.619Z,8.40
2019-04-03T09:28:50.938Z,10.05
2019-04-03T09:31:23.221Z,7.80
2019-04-03T09:33:57.008Z,15.23
2019-04-03T09:36:30.615Z,7.60
2019-04-03T09:39:03.624Z,7.33
2019-04-03T09:41:32.780Z,9.25
2019-04-03T09:44:06.134Z,8.88
2019-04-03T09:46:37.693Z,9.25
2019-04-03T09:49:10.974Z,7.75
2019-04-03T09:51:42.837Z,6.78
2019-04-03T09:54:14.173Z,5.90
2019-04-03T09:56:57.470Z,10.43
2019-04-03T09:59:18.815Z,6.53
2019-04-03T10:01:50.934Z,9.50
2019-04-03T10:04:21.621Z,7.33
2019-04-03T10:06:54.702Z,7.08
2019-04-03T10:09:25.197Z,7.37
2019-04-03T10:11:58.122Z,6.50
2019-04-03T10:14:29.053Z,7.70
2019-04-03T10:17:01.325Z,6.05
2019-04-03T10:19:31.381Z,6.80
2019-04-03T10:24:36.084Z,8.78
2019-04-03T10:27:10.318Z,6.97
2019-04-03T10:29:40.124Z,11.65
2019-04-03T10:32:12.715Z,14.30
2019-04-03T10:34:42.214Z,10.82
2019-04-03T10:37:12.192Z,15.25
2019-04-03T10:39:44.441Z,11.85
2019-04-03T10:42:16.135Z,9.60
2019-04-03T10:44:46.501Z,13.62
2019-04-03T10:47:22.884Z,13.95
2019-04-03T10:49:51.294Z,11.25
2019-04-03T10:52:24.778Z,13.68
2019-04-03T10:54:56.814Z,11.48
2019-04-03T10:57:26.942Z,12.13
2019-04-03T10:59:58.144Z,10.90
2019-04-03T11:02:29.734Z,10.93
2019-04-03T11:05:00.645Z,12.43
2019-04-03T11:07:32.684Z,12.47
2019-04-03T11:10:03.224Z,13.40
2019-04-03T11:15:12.562Z,15.60
2019-04-03T11:17:44.135Z,14.38
2019-04-03T11:20:19.489Z,10.05
2019-04-03T11:23:03.819Z,14.65
2019-04-03T11:25:22.677Z,15.30
2019-04-03T11:27:57.964Z,13.83
2019-04-03T11:30:30.974Z,18.75
2019-04-03T11:32:59.605Z,11.30
2019-04-03T11:35:31.154Z,14.53
2019-04-03T11:38:11.734Z,15.90
2019-04-03T11:40:36.176Z,10.75
2019-04-03T11:43:08.753Z,11.22
2019-04-03T11:45:41.220Z,16.10
2019-04-03T11:48:12.391Z,13.32
2019-04-03T11:50:45.308Z,12.30
2019-04-03T11:53:17.044Z,8.08
2019-04-03T11:55:52.084Z,10.32
2019-04-03T11:58:26.074Z,8.10
2019-04-03T12:01:00.084Z,9.25
2019-04-03T12:03:30.595Z,9.15
2019-04-03T12:06:00.664Z,8.45
2019-04-03T12:08:30.286Z,11.30
2019-04-03T12:11:05.419Z,10.00
2019-04-03T12:13:37.153Z,7.28
2019-04-03T12:16:07.502Z,8.50
2019-04-03T12:18:42.656Z,6.37
2019-04-03T12:21:14.186Z,8.90
2019-04-03T12:23:45.331Z,8.50
2019-04-03T12:26:20.094Z,8.88
2019-04-03T12:28:49.047Z,7.90
2019-04-03T12:31:19.333Z,10.98
2019-04-03T12:33:56.323Z,8.10
2019-04-03T12:36:23.064Z,7.22
2019-04-03T12:38:55.371Z,13.98
2019-04-03T12:43:57.037Z,7.40
2019-04-03T12:46:41.846Z,10.72
2019-04-03T12:49:10.641Z,10.65
2019-04-03T12:51:43.542Z,9.05
2019-04-03T12:54:20.269Z,8.85
2019-04-03T12:56:51.437Z,9.33
2019-04-03T12:59:23.791Z,13.28
2019-04-03T13:01:56.140Z,8.03
2019-04-03T13:04:31.152Z,9.33
2019-04-03T13:07:00.333Z,9.03
2019-04-03T13:09:32.254Z,10.28
2019-04-03T13:12:06.862Z,6.45
2019-04-03T13:14:36.894Z,9.55
2019-04-03T13:17:06.458Z,10.05
2019-04-03T13:19:38.632Z,9.43
2019-04-03T13:22:12.012Z,10.18
2019-04-03T13:24:42.179Z,10.28
2019-04-03T13:27:14.486Z,6.08
2019-04-03T13:29:48.034Z,7.53
2019-04-03T13:32:22.731Z,7.90
2019-04-03T13:34:52.246Z,11.38
2019-04-03T13:39:52.074Z,9.38
2019-04-03T13:42:22.604Z,6.83
2019-04-03T13:44:54.001Z,8.73
2019-04-03T13:47:23.809Z,6.70
2019-04-03T13:49:57.371Z,9.15
2019-04-03T13:52:38.742Z,8.18
2019-04-03T13:55:00.107Z,7.25
2019-04-03T13:57:31.734Z,8.80
2019-04-03T14:00:15.989Z,8.55
2019-04-03T14:02:38.628Z,6.37
2019-04-03T14:05:12.494Z,6.30
2019-04-03T14:07:44.940Z,12.80
2019-04-03T14:10:15.503Z,8.30
2019-04-03T14:12:45.718Z,8.13
2019-04-03T14:15:15.573Z,8.40
2019-04-03T14:17:55.204Z,7.28
2019-04-03T14:20:23.788Z,6.83
2019-04-03T14:22:56.457Z,7.65
2019-04-03T14:25:31.352Z,8.93
2019-04-03T14:28:01.851Z,11.97
2019-04-03T14:30:33.972Z,8.08
2019-04-03T14:33:03.596Z,12.85
2019-04-03T14:35:48.800Z,11.93
2019-04-03T14:40:32.642Z,8.75
2019-04-03T14:43:02.228Z,8.40
2019-04-03T14:45:34.371Z,9.55
2019-04-03T14:48:05.193Z,12.35
2019-04-03T14:50:38.311Z,11.55
2019-04-03T14:53:08.042Z,8.08
2019-04-03T14:55:47.089Z,11.27
2019-04-03T14:58:06.717Z,7.33
2019-04-03T15:00:36.252Z,9.23
2019-04-03T15:03:08.357Z,10.48
2019-04-03T15:05:44.855Z,9.88
2019-04-03T15:08:12.867Z,9.80
2019-04-03T15:13:20.564Z,15.18
2019-04-03T15:15:48.944Z,10.03
2019-04-03T15:18:19.173Z,12.75
2019-04-03T15:20:49.251Z,12.65
2019-04-03T15:23:19.694Z,8.98
2019-04-03T15:28:23.396Z,9.60
2019-04-03T15:30:55.336Z,10.08
2019-04-03T15:33:24.915Z,7.37
2019-04-03T15:35:55.384Z,11.03
2019-04-03T15:38:25.733Z,9.05
2019-04-03T15:40:58.255Z,9.50
2019-04-03T15:43:25.828Z,10.08
2019-04-03T15:45:56.631Z,10.98
2019-04-03T15:48:25.489Z,8.25
2019-04-03T15:50:54.494Z,13.60
2019-04-03T15:53:24.527Z,8.30
2019-04-03T15:55:53.454Z,8.35
2019-04-03T15:58:22.842Z,10.43
2019-04-03T16:00:52.461Z,7.62
2019-04-03T16:03:21.526Z,7.65
2019-04-03T16:05:50.895Z,10.20
2019-04-03T16:08:19.679Z,9.90
2019-04-03T16:10:48.477Z,10.23
2019-04-03T16:13:17.573Z,8.65
2019-04-03T16:15:46.667Z,9.78
2019-04-03T16:18:15.821Z,10.03
2019-04-03T16:20:44.982Z,9.18
2019-04-03T16:23:13.824Z,12.90
2019-04-03T16:25:42.644Z,21.73
2019-04-03T16:28:13.009Z,15.05
2019-04-03T16:30:42.923Z,16.10
2019-04-03T16:33:20.377Z,14.40
2019-04-03T16:35:44.762Z,12.82
2019-04-03T16:38:11.648Z,16.02
2019-04-03T16:40:40.400Z,15.20
2019-04-03T16:43:09.184Z,16.37
2019-04-03T16:45:39.053Z,11.63
2019-04-03T16:48:09.314Z,17.90
2019-04-03T16:50:38.228Z,14.75
2019-04-03T16:53:07.465Z,16.35
2019-04-03T16:55:36.524Z,14.53
2019-04-03T16:58:05.282Z,15.65
2019-04-03T17:00:33.894Z,17.75
2019-04-03T17:03:02.305Z,14.43
2019-04-03T17:05:31.165Z,17.30
2019-04-03T17:07:59.834Z,15.40
2019-04-03T17:10:28.332Z,22.52
2019-04-03T17:12:56.806Z,15.95
2019-04-03T17:15:25.905Z,19.35
2019-04-03T17:17:54.802Z,15.18
2019-04-03T17:20:25.543Z,15.48
2019-04-03T17:22:54.780Z,12.73
2019-04-03T17:25:27.782Z,10.13
2019-04-03T17:27:58.107Z,9.70
2019-04-03T17:30:25.552Z,10.40
2019-04-03T17:32:54.386Z,8.90
2019-04-03T17:35:22.962Z,13.90
2019-04-03T17:37:53.675Z,10.93
2019-04-03T17:42:50.186Z,10.32
2019-04-03T17:45:19.436Z,9.53
2019-04-03T17:47:49.645Z,10.82
2019-04-03T17:50:18.854Z,15.90
2019-04-03T17:52:49.412Z,10.98
2019-04-03T17:55:17.975Z,8.33
2019-04-03T17:57:46.872Z,8.48
2019-04-03T18:00:17.046Z,9.58
2019-04-03T18:02:45.984Z,10.28
2019-04-03T18:05:14.564Z,11.60
2019-04-03T18:07:43.192Z,8.58
2019-04-03T18:10:12.916Z,11.38
2019-04-03T18:12:42.145Z,11.75
2019-04-03T18:15:11.094Z,14.47
2019-04-03T18:17:40.044Z,14.65
2019-04-03T18:20:12.516Z,15.35
2019-04-03T18:22:41.404Z,11.35
2019-04-03T18:25:10.613Z,20.90
2019-04-03T18:27:39.493Z,14.03
2019-04-03T18:30:11.867Z,17.50
2019-04-03T18:32:40.256Z,8.48
2019-04-03T18:35:09.536Z,13.95
2019-04-03T18:37:40.661Z,15.03
2019-04-03T18:40:09.998Z,12.60
2019-04-03T18:42:38.875Z,16.35
2019-04-03T18:45:09.124Z,13.00
2019-04-03T18:47:41.586Z,13.80
2019-04-03T18:50:10.191Z,13.20
2019-04-03T18:52:39.514Z,17.32
2019-04-03T18:55:08.655Z,14.63
2019-04-03T18:57:37.555Z,9.73
2019-04-03T19:00:10.899Z,10.58
2019-04-03T19:02:39.673Z,10.53
2019-04-03T19:05:10.914Z,21.80
2019-04-03T19:07:39.555Z,10.75
2019-04-03T19:10:08.045Z,13.53
2019-04-03T19:12:37.007Z,9.70
2019-04-03T19:15:08.084Z,11.43
2019-04-03T19:17:36.565Z,13.20
2019-04-03T19:20:10.564Z,6.75
2019-04-03T19:22:37.225Z,12.82
2019-04-03T19:25:09.063Z,12.90
2019-04-03T19:27:37.857Z,10.65
2019-04-03T19:30:07.141Z,9.30
2019-04-03T19:32:36.704Z,11.50
2019-04-03T19:35:09.519Z,10.25
2019-04-03T19:37:39.146Z,8.63
2019-04-03T19:40:09.559Z,9.85
2019-04-03T19:42:38.054Z,9.33
2019-04-03T19:45:07.554Z,7.47
2019-04-03T19:47:38.001Z,12.15
2019-04-03T19:50:09.544Z,12.88
2019-04-03T19:52:41.615Z,12.35
2019-04-03T19:55:09.728Z,16.15
2019-04-03T19:57:51.303Z,8.93
2019-04-03T20:00:19.567Z,9.25
2019-04-03T20:02:49.977Z,10.15
2019-04-03T20:05:18.922Z,9.28
2019-04-03T20:07:50.114Z,10.70
2019-04-03T20:10:20.624Z,10.35
2019-04-03T20:12:50.788Z,9.93
2019-04-03T20:15:22.412Z,10.72
2019-04-03T20:17:49.363Z,7.80
2019-04-03T20:20:18.124Z,9.10
2019-04-03T20:22:46.914Z,8.78
2019-04-03T20:25:15.396Z,8.75
2019-04-03T20:27:47.048Z,9.25
2019-04-03T20:30:14.523Z,8.13
2019-04-03T20:32:43.009Z,7.80
2019-04-03T20:35:11.864Z,9.45
2019-04-03T20:37:40.413Z,8.20
2019-04-03T20:40:09.275Z,8.98
2019-04-03T20:42:41.525Z,8.70
2019-04-03T20:45:09.927Z,8.50
2019-04-03T20:47:38.815Z,8.65
2019-04-03T20:50:07.888Z,7.80
2019-04-03T20:52:38.794Z,10.28
2019-04-03T20:55:07.625Z,12.00
2019-04-03T20:57:36.439Z,8.83
2019-04-03T21:00:12.999Z,8.58
2019-04-03T21:02:43.524Z,7.95
2019-04-03T21:05:17.707Z,8.90
2019-04-03T21:07:46.744Z,7.70
2019-04-03T21:10:15.724Z,8.65
2019-04-03T21:12:45.742Z,8.90
2019-04-03T21:15:16.654Z,7.62
2019-04-03T21:17:49.756Z,7.75
2019-04-03T21:20:17.439Z,7.12
2019-04-03T21:22:46.835Z,10.72
2019-04-03T21:25:15.616Z,9.95
2019-04-03T21:27:44.504Z,9.40
2019-04-03T21:30:12.996Z,10.18
2019-04-03T21:32:41.749Z,9.48
2019-04-03T21:35:10.467Z,7.10
2019-04-03T21:37:40.535Z,10.08
2019-04-03T21:40:09.174Z,7.47
2019-04-03T21:42:38.208Z,9.90
2019-04-03T21:45:08.907Z,8.10
2019-04-03T21:47:39.224Z,6.85
2019-04-03T21:50:08.106Z,9.55
2019-04-03T21:52:36.524Z,9.33
2019-04-03T21:55:09.214Z,10.60
2019-04-03T21:57:40.426Z,7.62
2019-04-03T22:00:08.909Z,8.73
2019-04-03T22:02:37.894Z,10.23
2019-04-03T22:05:07.368Z,8.28
2019-04-03T22:07:36.386Z,6.47
2019-04-03T22:10:08.638Z,9.40
2019-04-03T22:12:36.786Z,10.90
2019-04-03T22:15:06.946Z,7.92
2019-04-03T22:17:35.838Z,8.65
2019-04-03T22:20:05.645Z,7.03
2019-04-03T22:22:36.094Z,9.43
2019-04-03T22:25:04.867Z,10.13
2019-04-03T22:27:33.666Z,8.70
2019-04-03T22:30:02.029Z,8.83
2019-04-03T22:32:30.836Z,9.25
2019-04-03T22:35:00.916Z,7.20
2019-04-03T22:37:29.644Z,8.93
2019-04-03T22:39:58.422Z,9.10
2019-04-03T22:42:27.126Z,6.15
2019-04-03T22:44:55.865Z,8.63
2019-04-03T22:47:25.088Z,10.53
2019-04-03T22:49:54.598Z,7.33
2019-04-03T22:52:23.306Z,9.05
2019-04-03T22:54:52.065Z,6.72
2019-04-03T22:57:20.451Z,10.15
2019-04-03T22:59:49.326Z,9.75
2019-04-03T23:02:17.905Z,6.60
2019-04-03T23:04:46.706Z,10.23
2019-04-03T23:07:15.476Z,7.85
2019-04-03T23:09:44.376Z,9.58
2019-04-03T23:12:13.168Z,7.67
2019-04-03T23:14:42.055Z,9.18
2019-04-03T23:17:11.983Z,8.30
2019-04-03T23:19:41.256Z,7.37
2019-04-03T23:22:10.184Z,9.98
2019-04-03T23:24:38.768Z,10.45
2019-04-03T23:27:07.656Z,11.83
2019-04-03T23:29:36.771Z,8.63
2019-04-03T23:32:05.745Z,10.15
2019-04-03T23:34:34.315Z,7.17
2019-04-03T23:37:03.215Z,11.65
2019-04-03T23:39:31.685Z,8.78
2019-04-03T23:42:00.676Z,11.15
2019-04-03T23:44:29.476Z,9.50
2019-04-03T23:46:58.358Z,10.80
2019-04-03T23:49:27.126Z,10.53
2019-04-03T23:51:57.066Z,9.18
2019-04-03T23:54:26.046Z,9.25
2019-04-03T23:56:56.186Z,10.63
2019-04-03T23:59:24.956Z,10.55
